Time,TemperatureF,DewpointF,PressureIn,WindDirection,WindDirectionDegrees,WindSpeedMPH,WindSpeedGustMPH,Humidity,HourlyPrecipIn,Conditions,Clouds,dailyrainin,SolarRadiationWatts/m^2,SoftwareType,DateUTC
2013-08-20 00:01:00,74.6,69.8,29.93,South,175,0.4,1.2,85,0.00,CLR,,0.00,0.0,WeatherDisplay:10.37,2013-08-20 05:01:00,
2013-08-20 00:06:00,74.4,69.6,29.93,South,171,0.8,2.3,85,0.00,CLR,,0.00,0.0,WeatherDisplay:10.37,2013-08-20 05:06:00,
2013-08-20 00:11:00,74.4,69.6,29.93,South,178,1.2,3.5,85,0.00,CLR,,0.00,0.0,WeatherDisplay:10.37,2013-08-20 05:11:00,
2013-08-20 00:16:00,74.4,69.6,29.93,SSE,161,2.0,5.0,85,0.00,CLR,,0.00,0.0,WeatherDisplay:10.37,2013-08-20 05:16:00,
2013-08-20 00:21:00,74.3,69.5,29.93,SSE,162,0.9,2.3,85,0.00,CLR,,0.00,0.0,WeatherDisplay:10.37,2013-08-20 05:21:00,
2013-08-20 00:26:00,74.1,69.6,29.93,SSE,164,0.4,2.3,86,0.00,CLR,,0.00,0.0,WeatherDisplay:10.37,2013-08-20 05:26:00,
2013-08-20 00:31:00,74.2,69.7,29.93,South,169,0.8,2.3,86,0.00,CLR,,0.00,0.0,WeatherDisplay:10.37,2013-08-20 05:31:00,
2013-08-20 00:36:00,74.1,69.6,29.93,South,188,1.7,4.0,86,0.00,CLR,,0.00,0.0,WeatherDisplay:10.37,2013-08-20 05:36:00,
2013-08-20 00:41:00,74.2,69.7,29.93,SE,145,0.3,2.3,86,0.00,CLR,,0.00,0.0,WeatherDisplay:10.37,2013-08-20 05:41:00,
2013-08-20 00:46:00,74.1,69.6,29.93,SE,130,1.1,5.8,86,0.00,CLR,,0.00,0.0,WeatherDisplay:10.37,2013-08-20 05:46:00,
2013-08-20 00:51:00,74.0,69.5,29.93,South,176,0.2,1.2,86,0.00,CLR,,0.00,0.0,WeatherDisplay:10.37,2013-08-20 05:51:00,
2013-08-20 00:56:00,74.0,69.5,29.93,SSE,161,1.5,3.0,86,0.00,CLR,,0.00,0.0,WeatherDisplay:10.37,2013-08-20 05:56:00,
2013-08-20 01:01:00,74.1,69.6,29.93,South,184,0.6,3.5,86,0.00,CLR,,0.00,0.0,WeatherDisplay:10.37,2013-08-20 06:01:00,
2013-08-20 01:06:00,74.2,69.7,29.93,South,183,1.9,6.0,86,0.00,CLR,,0.00,0.0,WeatherDisplay:10.37,2013-08-20 06:06:00,
2013-08-20 01:11:00,74.2,69.7,29.93,South,178,1.6,6.9,86,0.00,CLR,,0.00,0.0,WeatherDisplay:10.37,2013-08-20 06:11:00,
2013-08-20 01:16:00,74.2,69.7,29.93,SSE,164,0.5,2.3,86,0.00,CLR,,0.00,0.0,WeatherDisplay:10.37,2013-08-20 06:16:00,
2013-08-20 01:21:00,74.1,69.6,29.93,SSW,206,1.8,5.0,86,0.00,CLR,,0.00,0.0,WeatherDisplay:10.37,2013-08-20 06:21:00,
2013-08-20 01:26:00,74.0,69.5,29.93,SSW,206,1.0,3.5,86,0.00,CLR,,0.00,0.0,WeatherDisplay:10.37,2013-08-20 06:26:00,
2013-08-20 01:31:00,74.1,69.6,29.92,SSW,193,2.9,5.0,86,0.00,CLR,,0.00,0.0,WeatherDisplay:10.37,2013-08-20 06:31:00,
2013-08-20 01:36:00,74.1,70.0,29.92,SSE,157,2.5,4.0,87,0.00,CLR,,0.00,0.0,WeatherDisplay:10.37,2013-08-20 06:36:00,
2013-08-20 01:41:00,74.0,69.9,29.92,South,186,1.3,4.0,87,0.00,CLR,,0.00,0.0,WeatherDisplay:10.37,2013-08-20 06:41:00,
2013-08-20 01:46:00,73.9,69.8,29.92,South,182,2.7,7.0,87,0.00,CLR,,0.00,0.0,WeatherDisplay:10.37,2013-08-20 06:46:00,
2013-08-20 01:51:00,73.7,69.6,29.92,SSW,193,0.7,2.0,87,0.00,CLR,,0.00,0.0,WeatherDisplay:10.37,2013-08-20 06:51:00,
2013-08-20 01:56:00,73.5,69.7,29.92,South,178,1.3,4.0,88,0.00,CLR,,0.00,0.0,WeatherDisplay:10.37,2013-08-20 06:56:00,
2013-08-20 02:01:00,73.4,69.6,29.92,South,179,2.2,5.0,88,0.00,CLR,,0.00,0.0,WeatherDisplay:10.37,2013-08-20 07:01:00,
2013-08-20 02:06:00,73.3,69.5,29.92,SSW,194,3.0,6.0,88,0.00,FEW,,0.00,0.0,WeatherDisplay:10.37,2013-08-20 07:06:00,
2013-08-20 02:11:00,73.2,69.4,29.92,SSW,200,0.6,4.0,88,0.00,FEW,,0.00,0.0,WeatherDisplay:10.37,2013-08-20 07:11:00,
2013-08-20 02:16:00,72.9,69.5,29.92,South,190,1.0,3.5,89,0.00,FEW,,0.00,0.0,WeatherDisplay:10.37,2013-08-20 07:16:00,
2013-08-20 02:21:00,72.9,69.5,29.92,South,188,1.6,4.0,89,0.00,FEW,,0.00,0.0,WeatherDisplay:10.37,2013-08-20 07:21:00,
2013-08-20 02:26:00,72.7,68.9,29.92,South,188,1.3,3.5,88,0.00,FEW,,0.00,0.0,WeatherDisplay:10.37,2013-08-20 07:26:00,
2013-08-20 02:31:00,72.5,69.1,29.92,South,189,1.8,4.0,89,0.00,FEW,,0.00,0.0,WeatherDisplay:10.37,2013-08-20 07:31:00,
2013-08-20 02:36:00,72.4,69.3,29.92,South,169,0.9,3.5,90,0.00,FEW,,0.00,0.0,WeatherDisplay:10.37,2013-08-20 07:36:00,
2013-08-20 02:41:00,72.4,69.3,29.92,WSW,252,1.5,8.0,90,0.00,FEW,,0.00,0.0,WeatherDisplay:10.37,2013-08-20 07:41:00,
2013-08-20 02:46:00,72.4,69.3,29.92,South,172,1.6,4.0,90,0.00,FEW,,0.00,0.0,WeatherDisplay:10.37,2013-08-20 07:46:00,
2013-08-20 02:51:00,72.4,69.3,29.92,SW,236,1.9,4.6,90,0.00,FEW,,0.00,0.0,WeatherDisplay:10.37,2013-08-20 07:51:00,
2013-08-20 02:56:00,72.2,69.1,29.92,South,186,3.4,8.0,90,0.00,FEW,,0.00,0.0,WeatherDisplay:10.37,2013-08-20 07:56:00,
2013-08-20 03:01:00,72.1,69.3,29.92,South,187,1.3,4.0,91,0.00,FEW,,0.00,0.0,WeatherDisplay:10.37,2013-08-20 08:01:00,
2013-08-20 03:06:00,72.1,69.3,29.92,SW,216,1.7,4.0,91,0.00,CLR,,0.00,0.0,WeatherDisplay:10.37,2013-08-20 08:06:00,
2013-08-20 03:11:00,72.0,69.2,29.92,SSE,162,3.0,5.0,91,0.00,CLR,,0.00,0.0,WeatherDisplay:10.37,2013-08-20 08:11:00,
2013-08-20 03:16:00,72.0,69.2,29.92,South,182,2.6,4.0,91,0.00,CLR,,0.00,0.0,WeatherDisplay:10.37,2013-08-20 08:16:00,
2013-08-20 03:21:00,71.9,69.1,29.92,South,182,0.3,2.0,91,0.00,CLR,,0.00,0.0,WeatherDisplay:10.37,2013-08-20 08:21:00,
2013-08-20 03:26:00,71.8,69.0,29.92,SSE,167,3.0,6.0,91,0.00,CLR,,0.00,0.0,WeatherDisplay:10.37,2013-08-20 08:26:00,
2013-08-20 03:31:00,71.7,68.9,29.92,South,173,1.9,5.0,91,0.00,CLR,,0.00,0.0,WeatherDisplay:10.37,2013-08-20 08:31:00,
2013-08-20 03:36:00,71.6,69.2,29.91,South,171,2.0,4.0,92,0.00,CLR,,0.00,0.0,WeatherDisplay:10.37,2013-08-20 08:36:00,
2013-08-20 03:41:00,71.5,69.1,29.92,South,184,0.8,3.5,92,0.00,CLR,,0.00,0.0,WeatherDisplay:10.37,2013-08-20 08:41:00,
2013-08-20 03:46:00,71.4,69.0,29.92,SE,144,1.5,3.5,92,0.00,CLR,,0.00,0.0,WeatherDisplay:10.37,2013-08-20 08:46:00,
2013-08-20 03:51:00,71.3,68.9,29.92,SSE,149,0.2,2.3,92,0.00,CLR,,0.00,0.0,WeatherDisplay:10.37,2013-08-20 08:51:00,
2013-08-20 03:56:00,71.3,68.9,29.91,WSW,240,0.7,4.0,92,0.00,CLR,,0.00,0.0,WeatherDisplay:10.37,2013-08-20 08:56:00,
2013-08-20 04:01:00,71.2,68.8,29.91,SSW,198,1.8,4.0,92,0.00,CLR,,0.00,0.0,WeatherDisplay:10.37,2013-08-20 09:01:00,
2013-08-20 04:06:00,71.0,68.6,29.91,SE,142,0.8,3.5,92,0.00,CLR,,0.00,0.0,WeatherDisplay:10.37,2013-08-20 09:06:00,
2013-08-20 04:11:00,71.0,68.9,29.91,SSE,156,1.6,3.0,93,0.00,CLR,,0.00,0.0,WeatherDisplay:10.37,2013-08-20 09:11:00,
2013-08-20 04:16:00,71.0,68.9,29.91,SSW,192,0.6,1.2,93,0.00,CLR,,0.00,0.0,WeatherDisplay:10.37,2013-08-20 09:16:00,
2013-08-20 04:21:00,70.8,68.7,29.91,SSW,196,1.5,4.0,93,0.00,CLR,,0.00,0.0,WeatherDisplay:10.37,2013-08-20 09:21:00,
2013-08-20 04:26:00,70.8,68.7,29.91,South,185,1.4,4.6,93,0.00,CLR,,0.00,0.0,WeatherDisplay:10.37,2013-08-20 09:26:00,
2013-08-20 04:31:00,70.8,68.7,29.91,South,175,0.9,3.5,93,0.00,CLR,,0.00,0.0,WeatherDisplay:10.37,2013-08-20 09:31:00,
2013-08-20 04:36:00,70.7,68.6,29.91,South,181,2.8,5.0,93,0.00,CLR,,0.00,0.0,WeatherDisplay:10.37,2013-08-20 09:36:00,
2013-08-20 04:41:00,70.6,68.5,29.91,South,173,3.4,6.0,93,0.00,CLR,,0.00,0.0,WeatherDisplay:10.37,2013-08-20 09:41:00,
2013-08-20 04:46:00,70.6,68.5,29.91,South,182,0.8,3.5,93,0.00,CLR,,0.00,0.0,WeatherDisplay:10.37,2013-08-20 09:46:00,
2013-08-20 04:51:00,70.5,68.4,29.91,South,179,1.2,6.0,93,0.00,CLR,,0.00,0.0,WeatherDisplay:10.37,2013-08-20 09:51:00,
2013-08-20 04:56:00,70.4,68.3,29.91,South,177,2.1,5.0,93,0.00,CLR,,0.00,0.0,WeatherDisplay:10.37,2013-08-20 09:56:00,
2013-08-20 05:01:00,70.3,68.2,29.91,South,177,0.2,2.3,93,0.00,CLR,,0.00,0.0,WeatherDisplay:10.37,2013-08-20 10:01:00,
2013-08-20 05:06:00,70.1,68.0,29.91,SSW,196,1.9,4.0,93,0.00,CLR,,0.00,0.0,WeatherDisplay:10.37,2013-08-20 10:06:00,
2013-08-20 05:11:00,70.2,68.4,29.92,SSE,157,2.0,6.0,94,0.00,CLR,,0.00,0.0,WeatherDisplay:10.37,2013-08-20 10:11:00,
2013-08-20 05:16:00,70.3,68.5,29.92,South,186,1.0,6.9,94,0.00,CLR,,0.00,0.0,WeatherDisplay:10.37,2013-08-20 10:16:00,
2013-08-20 05:21:00,70.3,68.5,29.92,South,189,3.5,8.1,94,0.00,CLR,,0.00,0.0,WeatherDisplay:10.37,2013-08-20 10:21:00,
2013-08-20 05:26:00,70.3,68.5,29.92,South,178,2.7,6.0,94,0.00,CLR,,0.00,0.0,WeatherDisplay:10.37,2013-08-20 10:26:00,
2013-08-20 05:31:00,70.2,68.4,29.92,South,182,3.2,5.0,94,0.00,CLR,,0.00,0.0,WeatherDisplay:10.37,2013-08-20 10:31:00,
2013-08-20 05:36:00,70.2,68.4,29.92,SSW,211,1.9,3.5,94,0.00,CLR,,0.00,0.0,WeatherDisplay:10.37,2013-08-20 10:36:00,
2013-08-20 05:41:00,70.1,68.3,29.92,SSW,198,1.9,5.0,94,0.00,CLR,,0.00,0.0,WeatherDisplay:10.37,2013-08-20 10:41:00,
2013-08-20 05:46:00,70.1,68.3,29.92,SSE,151,5.1,7.0,94,0.00,CLR,,0.00,0.0,WeatherDisplay:10.37,2013-08-20 10:46:00,
2013-08-20 05:51:00,70.1,68.3,29.92,SW,223,1.2,3.5,94,0.00,CLR,,0.00,0.0,WeatherDisplay:10.37,2013-08-20 10:51:00,
2013-08-20 05:56:00,69.9,68.1,29.92,SSW,207,1.9,4.0,94,0.00,CLR,,0.00,0.0,WeatherDisplay:10.37,2013-08-20 10:56:00,
2013-08-20 06:01:00,69.9,68.1,29.92,SSW,194,4.4,6.0,94,0.00,CLR,,0.00,0.0,WeatherDisplay:10.37,2013-08-20 11:01:00,
2013-08-20 06:06:00,69.9,68.1,29.92,South,173,1.5,3.5,94,0.00,CLR,,0.00,0.0,WeatherDisplay:10.37,2013-08-20 11:06:00,
2013-08-20 06:11:00,69.8,68.0,29.92,South,183,1.6,5.0,94,0.00,CLR,,0.00,0.0,WeatherDisplay:10.37,2013-08-20 11:11:00,
2013-08-20 06:16:00,69.8,68.0,29.92,SSE,160,2.4,4.0,94,0.00,CLR,,0.00,0.0,WeatherDisplay:10.37,2013-08-20 11:16:00,
2013-08-20 06:21:00,69.8,68.0,29.93,South,180,0.8,2.3,94,0.00,CLR,,0.00,0.0,WeatherDisplay:10.37,2013-08-20 11:21:00,
2013-08-20 06:26:00,69.7,67.9,29.93,SSW,211,2.7,6.0,94,0.00,CLR,,0.00,0.0,WeatherDisplay:10.37,2013-08-20 11:26:00,
2013-08-20 06:31:00,69.7,67.9,29.93,SSW,210,1.9,3.5,94,0.00,CLR,,0.00,5.0,WeatherDisplay:10.37,2013-08-20 11:31:00,
2013-08-20 06:37:00,69.6,68.1,29.93,SSW,207,1.4,4.6,95,0.00,CLR,,0.00,9.0,WeatherDisplay:10.37,2013-08-20 11:37:00,
2013-08-20 06:42:00,69.5,68.0,29.94,SSE,168,0.4,6.0,95,0.00,CLR,,0.00,12.0,WeatherDisplay:10.37,2013-08-20 11:42:00,
2013-08-20 06:47:00,69.5,68.0,29.94,SSW,194,0.6,3.5,95,0.00,CLR,,0.00,18.0,WeatherDisplay:10.37,2013-08-20 11:47:00,
2013-08-20 06:52:00,69.5,68.0,29.94,South,180,2.7,4.0,95,0.00,CLR,,0.00,21.0,WeatherDisplay:10.37,2013-08-20 11:52:00,
2013-08-20 06:57:00,69.5,68.0,29.94,WSW,242,2.6,4.6,95,0.00,CLR,,0.00,25.0,WeatherDisplay:10.37,2013-08-20 11:57:00,
2013-08-20 07:02:00,69.5,68.0,29.94,South,183,2.2,6.0,95,0.00,CLR,,0.00,30.0,WeatherDisplay:10.37,2013-08-20 12:02:00,
2013-08-20 07:07:00,69.5,68.0,29.94,South,181,3.4,6.0,95,0.00,CLR,,0.00,35.0,WeatherDisplay:10.37,2013-08-20 12:07:00,
2013-08-20 07:12:00,69.5,68.0,29.94,South,184,3.9,6.0,95,0.00,CLR,,0.00,42.0,WeatherDisplay:10.37,2013-08-20 12:12:00,
2013-08-20 07:17:00,69.6,68.1,29.94,SE,141,2.9,5.0,95,0.00,CLR,,0.00,44.0,WeatherDisplay:10.37,2013-08-20 12:17:00,
2013-08-20 07:22:00,69.7,68.2,29.94,South,186,2.4,5.0,95,0.00,CLR,,0.00,46.0,WeatherDisplay:10.37,2013-08-20 12:22:00,
2013-08-20 07:27:00,69.7,68.2,29.94,SSW,192,1.7,3.5,95,0.00,CLR,,0.00,53.0,WeatherDisplay:10.37,2013-08-20 12:27:00,
2013-08-20 07:32:00,69.8,68.0,29.94,SSW,194,1.7,3.5,94,0.00,CLR,,0.00,56.0,WeatherDisplay:10.37,2013-08-20 12:32:00,
2013-08-20 07:37:00,69.9,68.1,29.94,SSE,160,1.3,4.0,94,0.00,CLR,,0.00,56.0,WeatherDisplay:10.37,2013-08-20 12:37:00,
2013-08-20 07:42:00,70.0,68.2,29.94,South,172,2.7,6.0,94,0.00,CLR,,0.00,62.0,WeatherDisplay:10.37,2013-08-20 12:42:00,
2013-08-20 07:47:00,70.1,68.3,29.94,South,180,2.1,4.0,94,0.00,CLR,,0.00,100.0,WeatherDisplay:10.37,2013-08-20 12:47:00,
2013-08-20 07:52:00,70.2,68.4,29.94,South,175,3.1,4.0,94,0.00,CLR,,0.00,77.0,WeatherDisplay:10.37,2013-08-20 12:52:00,
2013-08-20 07:57:00,70.3,68.5,29.94,SSW,197,2.4,9.2,94,0.00,CLR,,0.00,134.0,WeatherDisplay:10.37,2013-08-20 12:57:00,
2013-08-20 08:02:00,70.6,68.8,29.94,South,169,1.6,4.0,94,0.00,CLR,,0.00,169.0,WeatherDisplay:10.37,2013-08-20 13:02:00,
2013-08-20 08:07:00,70.8,68.7,29.94,SE,128,2.2,5.0,93,0.00,CLR,,0.00,179.0,WeatherDisplay:10.37,2013-08-20 13:07:00,
2013-08-20 08:12:00,71.1,69.0,29.94,South,171,1.4,4.0,93,0.00,CLR,,0.00,192.0,WeatherDisplay:10.37,2013-08-20 13:12:00,
2013-08-20 08:17:00,71.4,69.0,29.94,SSE,165,4.0,7.0,92,0.00,CLR,,0.00,207.0,WeatherDisplay:10.37,2013-08-20 13:17:00,
2013-08-20 08:22:00,71.6,69.2,29.94,South,173,1.6,4.6,92,0.00,CLR,,0.00,223.0,WeatherDisplay:10.37,2013-08-20 13:22:00,
2013-08-20 08:27:00,71.8,69.0,29.94,South,172,3.5,7.0,91,0.00,CLR,,0.00,234.0,WeatherDisplay:10.37,2013-08-20 13:27:00,
2013-08-20 08:32:00,72.0,69.2,29.94,South,178,1.9,4.6,91,0.00,CLR,,0.00,253.0,WeatherDisplay:10.37,2013-08-20 13:32:00,
2013-08-20 08:37:00,72.3,69.5,29.94,South,171,2.5,5.0,91,0.00,CLR,,0.00,267.0,WeatherDisplay:10.37,2013-08-20 13:37:00,
2013-08-20 08:42:00,72.6,69.5,29.94,SSE,166,3.6,5.0,90,0.00,CLR,,0.00,285.0,WeatherDisplay:10.37,2013-08-20 13:42:00,
2013-08-20 08:47:00,72.9,69.8,29.94,South,188,2.7,5.0,90,0.00,CLR,,0.00,299.0,WeatherDisplay:10.37,2013-08-20 13:47:00,
2013-08-20 08:52:00,73.1,69.7,29.94,SSW,200,2.1,6.0,89,0.00,CLR,,0.00,313.0,WeatherDisplay:10.37,2013-08-20 13:52:00,
2013-08-20 08:57:00,73.5,70.1,29.94,SSW,194,2.9,4.0,89,0.00,CLR,,0.00,329.0,WeatherDisplay:10.37,2013-08-20 13:57:00,
2013-08-20 09:02:00,73.6,69.8,29.94,South,172,1.2,3.5,88,0.00,CLR,,0.00,341.0,WeatherDisplay:10.37,2013-08-20 14:02:00,
2013-08-20 09:07:00,73.9,70.1,29.94,SSW,203,2.6,4.0,88,0.00,CLR,,0.00,355.0,WeatherDisplay:10.37,2013-08-20 14:07:00,
2013-08-20 09:12:00,74.4,70.3,29.94,South,184,3.1,5.0,87,0.00,CLR,,0.00,371.0,WeatherDisplay:10.37,2013-08-20 14:12:00,
2013-08-20 09:17:00,74.5,70.4,29.94,South,173,3.3,5.0,87,0.00,CLR,,0.00,383.0,WeatherDisplay:10.37,2013-08-20 14:17:00,
2013-08-20 09:22:00,74.7,70.2,29.94,SSW,192,1.7,4.0,86,0.00,CLR,,0.00,399.0,WeatherDisplay:10.37,2013-08-20 14:22:00,
2013-08-20 09:27:00,75.1,70.6,29.94,South,184,3.2,6.9,86,0.00,CLR,,0.00,410.0,WeatherDisplay:10.37,2013-08-20 14:27:00,
2013-08-20 09:32:00,75.6,70.8,29.94,SSW,212,1.0,3.0,85,0.00,CLR,,0.00,422.0,WeatherDisplay:10.37,2013-08-20 14:32:00,
2013-08-20 09:37:00,75.8,70.6,29.94,South,175,2.1,3.5,84,0.00,CLR,,0.00,434.0,WeatherDisplay:10.37,2013-08-20 14:37:00,
2013-08-20 09:42:00,76.1,71.3,29.94,South,183,2.7,4.0,85,0.00,CLR,,0.00,443.0,WeatherDisplay:10.37,2013-08-20 14:42:00,
2013-08-20 09:47:00,76.2,70.7,29.94,South,184,3.6,5.0,83,0.00,CLR,,0.00,461.0,WeatherDisplay:10.37,2013-08-20 14:47:00,
2013-08-20 09:52:00,76.5,71.3,29.94,South,182,3.4,5.0,84,0.00,CLR,,0.00,473.0,WeatherDisplay:10.37,2013-08-20 14:52:00,
2013-08-20 09:57:00,76.7,71.1,29.94,South,182,4.0,6.9,83,0.00,CLR,,0.00,487.0,WeatherDisplay:10.37,2013-08-20 14:57:00,
2013-08-20 10:02:00,77.1,71.5,29.94,South,184,2.1,6.0,83,0.00,CLR,,0.00,501.0,WeatherDisplay:10.37,2013-08-20 15:02:00,
2013-08-20 10:07:00,77.3,71.7,29.94,South,169,3.3,5.0,83,0.00,CLR,,0.00,512.0,WeatherDisplay:10.37,2013-08-20 15:07:00,
2013-08-20 10:12:00,77.8,71.9,29.94,SSW,203,2.0,4.0,82,0.00,CLR,,0.00,522.0,WeatherDisplay:10.37,2013-08-20 15:12:00,
2013-08-20 10:17:00,78.1,72.2,29.94,SSE,159,2.4,5.0,82,0.00,CLR,,0.00,538.0,WeatherDisplay:10.37,2013-08-20 15:17:00,
2013-08-20 10:22:00,79.0,72.3,29.94,South,170,3.3,5.0,80,0.00,CLR,,0.00,547.0,WeatherDisplay:10.37,2013-08-20 15:22:00,
2013-08-20 10:27:00,78.7,72.0,29.94,SSW,211,4.1,6.9,80,0.00,CLR,,0.00,559.0,WeatherDisplay:10.37,2013-08-20 15:27:00,
2013-08-20 10:32:00,78.8,72.1,29.94,South,182,2.7,4.0,80,0.00,CLR,,0.00,566.0,WeatherDisplay:10.37,2013-08-20 15:32:00,
2013-08-20 10:37:00,79.8,72.7,29.94,SSE,161,3.7,6.0,79,0.00,CLR,,0.00,580.0,WeatherDisplay:10.37,2013-08-20 15:37:00,
2013-08-20 10:42:00,79.8,72.3,29.94,South,169,4.3,8.0,78,0.00,CLR,,0.00,589.0,WeatherDisplay:10.37,2013-08-20 15:42:00,
2013-08-20 10:47:00,79.8,72.7,29.94,East,92,4.9,10.4,79,0.00,CLR,,0.00,603.0,WeatherDisplay:10.37,2013-08-20 15:47:00,
2013-08-20 10:52:00,80.3,72.8,29.94,SSE,166,4.7,7.0,78,0.00,CLR,,0.00,612.0,WeatherDisplay:10.37,2013-08-20 15:52:00,
2013-08-20 10:57:00,80.7,72.8,29.94,South,173,3.4,5.8,77,0.00,CLR,,0.00,621.0,WeatherDisplay:10.37,2013-08-20 15:57:00,
2013-08-20 11:02:00,81.2,73.3,29.93,South,187,3.6,5.0,77,0.00,CLR,,0.00,636.0,WeatherDisplay:10.37,2013-08-20 16:02:00,
2013-08-20 11:07:00,81.6,73.3,29.93,SE,124,4.2,10.4,76,0.00,CLR,,0.00,640.0,WeatherDisplay:10.37,2013-08-20 16:07:00,
2013-08-20 11:12:00,82.8,73.7,29.93,SSE,155,2.1,5.0,74,0.00,CLR,,0.00,654.0,WeatherDisplay:10.37,2013-08-20 16:12:00,
2013-08-20 11:17:00,83.3,73.7,29.93,SSW,203,3.7,7.0,73,0.00,CLR,,0.00,663.0,WeatherDisplay:10.37,2013-08-20 16:17:00,
2013-08-20 11:22:00,83.8,73.8,29.93,SSW,194,5.3,10.0,72,0.00,CLR,,0.00,668.0,WeatherDisplay:10.37,2013-08-20 16:22:00,
2013-08-20 11:27:00,83.7,73.7,29.93,SSW,198,3.0,7.0,72,0.00,CLR,,0.00,679.0,WeatherDisplay:10.37,2013-08-20 16:27:00,
2013-08-20 11:32:00,83.6,73.6,29.93,SE,136,5.6,10.0,72,0.00,CLR,,0.00,684.0,WeatherDisplay:10.37,2013-08-20 16:32:00,
2013-08-20 11:37:00,83.0,73.4,29.93,SSW,211,4.5,9.2,73,0.00,CLR,,0.00,691.0,WeatherDisplay:10.37,2013-08-20 16:37:00,
2013-08-20 11:42:00,83.4,73.8,29.93,SSE,158,3.1,5.0,73,0.00,CLR,,0.00,698.0,WeatherDisplay:10.37,2013-08-20 16:42:00,
2013-08-20 11:47:00,83.7,73.7,29.92,South,178,6.4,10.4,72,0.00,CLR,,0.00,708.0,WeatherDisplay:10.37,2013-08-20 16:47:00,
2013-08-20 11:52:00,83.8,73.8,29.92,South,188,7.2,12.7,72,0.00,CLR,,0.00,714.0,WeatherDisplay:10.37,2013-08-20 16:52:00,
2013-08-20 11:57:00,83.8,73.8,29.93,SSE,165,4.9,10.4,72,0.00,CLR,,0.00,719.0,WeatherDisplay:10.37,2013-08-20 16:57:00,
2013-08-20 12:02:00,84.7,74.3,29.93,SSE,149,7.0,10.0,71,0.00,CLR,,0.00,728.0,WeatherDisplay:10.37,2013-08-20 17:02:00,
2013-08-20 12:07:00,84.7,74.3,29.92,SE,133,3.3,8.1,71,0.00,CLR,,0.00,729.0,WeatherDisplay:10.37,2013-08-20 17:07:00,
2013-08-20 12:12:00,86.0,74.6,29.92,SSE,165,3.2,5.0,69,0.00,CLR,,0.00,735.0,WeatherDisplay:10.37,2013-08-20 17:12:00,
2013-08-20 12:17:00,86.2,74.4,29.93,South,182,3.5,5.8,68,0.00,CLR,,0.00,744.0,WeatherDisplay:10.37,2013-08-20 17:17:00,
2013-08-20 12:22:00,85.8,74.9,29.93,SSW,194,2.3,6.9,70,0.00,CLR,,0.00,738.0,WeatherDisplay:10.37,2013-08-20 17:22:00,
2013-08-20 12:27:00,86.3,74.9,29.93,South,180,5.5,8.1,69,0.00,CLR,,0.00,745.0,WeatherDisplay:10.37,2013-08-20 17:27:00,
2013-08-20 12:32:00,86.5,74.2,29.93,SE,146,3.5,8.1,67,0.00,CLR,,0.00,758.0,WeatherDisplay:10.37,2013-08-20 17:32:00,
2013-08-20 12:37:00,87.1,74.8,29.93,SSW,192,3.9,8.0,67,0.00,CLR,,0.00,756.0,WeatherDisplay:10.37,2013-08-20 17:37:00,
2013-08-20 12:42:00,87.2,75.3,29.93,SSE,168,4.2,7.0,68,0.00,CLR,,0.00,747.0,WeatherDisplay:10.37,2013-08-20 17:42:00,
2013-08-20 12:47:00,87.0,74.7,29.92,South,184,3.6,6.0,67,0.00,CLR,,0.00,758.0,WeatherDisplay:10.37,2013-08-20 17:47:00,
2013-08-20 12:52:00,87.4,75.1,29.92,South,169,2.7,5.0,67,0.00,CLR,,0.00,756.0,WeatherDisplay:10.37,2013-08-20 17:52:00,
2013-08-20 12:57:00,87.4,74.6,29.92,South,177,6.0,13.0,66,0.00,CLR,,0.00,759.0,WeatherDisplay:10.37,2013-08-20 17:57:00,
2013-08-20 13:02:00,87.5,75.2,29.92,SSW,199,3.2,6.0,67,0.00,CLR,,0.00,759.0,WeatherDisplay:10.37,2013-08-20 18:02:00,
2013-08-20 13:07:00,88.1,74.8,29.92,SSW,192,3.7,10.4,65,0.00,CLR,,0.00,758.0,WeatherDisplay:10.37,2013-08-20 18:07:00,
2013-08-20 13:12:00,87.8,75.0,29.92,South,173,3.4,5.0,66,0.00,CLR,,0.00,761.0,WeatherDisplay:10.37,2013-08-20 18:12:00,
2013-08-20 13:17:00,87.7,75.4,29.92,SSE,159,4.0,6.0,67,0.00,CLR,,0.00,754.0,WeatherDisplay:10.37,2013-08-20 18:17:00,
2013-08-20 13:22:00,87.9,74.7,29.92,South,182,4.0,8.1,65,0.00,CLR,,0.00,761.0,WeatherDisplay:10.37,2013-08-20 18:22:00,
2013-08-20 13:27:00,87.9,75.1,29.92,SSE,155,4.3,6.9,66,0.00,CLR,,0.00,772.0,WeatherDisplay:10.37,2013-08-20 18:27:00,
2013-08-20 13:32:00,88.8,75.0,29.92,SSE,161,3.9,7.0,64,0.00,CLR,,0.00,766.0,WeatherDisplay:10.37,2013-08-20 18:32:00,
2013-08-20 13:37:00,88.8,74.6,29.92,South,188,4.1,8.0,63,0.00,CLR,,0.00,766.0,WeatherDisplay:10.37,2013-08-20 18:37:00,
2013-08-20 13:42:00,88.6,74.9,29.92,SW,222,1.6,7.0,64,0.00,CLR,,0.00,761.0,WeatherDisplay:10.37,2013-08-20 18:42:00,
2013-08-20 13:47:00,89.1,74.4,29.92,SSW,209,5.6,10.4,62,0.00,CLR,,0.00,752.0,WeatherDisplay:10.37,2013-08-20 18:47:00,
2013-08-20 13:52:00,89.1,74.9,29.92,South,184,1.5,5.0,63,0.00,CLR,,0.00,768.0,WeatherDisplay:10.37,2013-08-20 18:52:00,
2013-08-20 13:57:00,89.0,74.8,29.92,SSW,195,5.4,11.5,63,0.00,CLR,,0.00,768.0,WeatherDisplay:10.37,2013-08-20 18:57:00,
2013-08-20 14:02:00,88.8,74.6,29.92,SSW,192,3.1,7.0,63,0.00,CLR,,0.00,770.0,WeatherDisplay:10.37,2013-08-20 19:02:00,
2013-08-20 14:07:00,88.8,75.0,29.92,SSE,163,3.3,8.0,64,0.00,CLR,,0.00,765.0,WeatherDisplay:10.37,2013-08-20 19:07:00,
2013-08-20 14:12:00,89.5,75.2,29.92,SW,222,3.2,8.1,63,0.00,CLR,,0.00,761.0,WeatherDisplay:10.37,2013-08-20 19:12:00,
2013-08-20 14:17:00,89.8,75.0,29.91,South,182,5.1,9.0,62,0.00,CLR,,0.00,759.0,WeatherDisplay:10.37,2013-08-20 19:17:00,
2013-08-20 14:22:00,89.3,75.0,29.91,SSW,198,3.1,6.0,63,0.00,CLR,,0.00,279.0,WeatherDisplay:10.37,2013-08-20 19:22:00,
2013-08-20 14:27:00,89.3,74.6,29.91,South,174,3.3,6.9,62,0.00,CLR,,0.00,744.0,WeatherDisplay:10.37,2013-08-20 19:27:00,
2013-08-20 14:32:00,89.7,75.4,29.91,SE,135,3.0,8.0,63,0.00,CLR,,0.00,752.0,WeatherDisplay:10.37,2013-08-20 19:32:00,
2013-08-20 14:37:00,89.7,74.0,29.91,South,175,4.2,12.0,60,0.00,CLR,,0.00,745.0,WeatherDisplay:10.37,2013-08-20 19:37:00,
2013-08-20 14:42:00,89.2,75.0,29.91,SSW,197,3.8,6.9,63,0.00,CLR,,0.00,800.0,WeatherDisplay:10.37,2013-08-20 19:42:00,
2013-08-20 14:47:00,89.7,74.9,29.91,SSW,195,5.4,10.0,62,0.00,CLR,,0.00,789.0,WeatherDisplay:10.37,2013-08-20 19:47:00,
2013-08-20 14:52:00,89.7,74.5,29.91,South,184,4.7,6.9,61,0.00,CLR,,0.00,722.0,WeatherDisplay:10.37,2013-08-20 19:52:00,
2013-08-20 14:57:00,90.4,75.1,29.91,SSW,202,2.4,6.0,61,0.00,CLR,,0.00,698.0,WeatherDisplay:10.37,2013-08-20 19:57:00,
2013-08-20 15:02:00,90.0,75.2,29.91,South,185,6.5,11.0,62,0.00,FEW,,0.00,729.0,WeatherDisplay:10.37,2013-08-20 20:02:00,
2013-08-20 15:07:00,89.8,74.6,29.91,SSE,157,5.4,9.2,61,0.00,FEW,,0.00,686.0,WeatherDisplay:10.37,2013-08-20 20:07:00,
2013-08-20 15:12:00,89.4,74.2,29.90,SSW,211,4.4,8.1,61,0.00,FEW,,0.00,679.0,WeatherDisplay:10.37,2013-08-20 20:12:00,
2013-08-20 15:17:00,89.6,74.4,29.91,SSW,198,4.2,7.0,61,0.00,FEW,,0.00,677.0,WeatherDisplay:10.37,2013-08-20 20:17:00,
2013-08-20 15:22:00,90.0,74.7,29.91,SSE,163,3.6,8.0,61,0.00,FEW,,0.00,668.0,WeatherDisplay:10.37,2013-08-20 20:22:00,
2013-08-20 15:27:00,90.1,74.3,29.91,SSE,162,3.7,7.0,60,0.00,FEW,,0.00,654.0,WeatherDisplay:10.37,2013-08-20 20:27:00,
2013-08-20 15:32:00,89.9,74.2,29.91,SE,142,2.7,11.5,60,0.00,FEW,,0.00,643.0,WeatherDisplay:10.37,2013-08-20 20:32:00,
2013-08-20 15:37:00,89.6,74.4,29.90,SE,142,3.0,8.1,61,0.00,FEW,,0.00,621.0,WeatherDisplay:10.37,2013-08-20 20:37:00,
2013-08-20 15:42:00,89.8,74.1,29.90,SSW,202,3.8,8.1,60,0.00,FEW,,0.00,626.0,WeatherDisplay:10.37,2013-08-20 20:42:00,
2013-08-20 15:47:00,89.9,74.6,29.91,SSW,197,4.8,10.0,61,0.00,FEW,,0.00,617.0,WeatherDisplay:10.37,2013-08-20 20:47:00,
2013-08-20 15:52:00,89.4,74.7,29.90,SSW,211,4.4,7.0,62,0.00,FEW,,0.00,601.0,WeatherDisplay:10.37,2013-08-20 20:52:00,
2013-08-20 15:57:00,89.7,74.5,29.90,South,171,6.7,10.4,61,0.00,FEW,,0.00,585.0,WeatherDisplay:10.37,2013-08-20 20:57:00,
2013-08-20 16:02:00,89.2,74.5,29.90,South,184,3.8,8.1,62,0.00,FEW,,0.00,571.0,WeatherDisplay:10.37,2013-08-20 21:02:00,
2013-08-20 16:07:00,88.9,74.7,29.90,SSE,164,4.8,9.0,63,0.00,FEW,,0.00,552.0,WeatherDisplay:10.37,2013-08-20 21:07:00,
2013-08-20 16:12:00,89.0,74.8,29.90,South,188,5.2,8.1,63,0.00,FEW,,0.00,568.0,WeatherDisplay:10.37,2013-08-20 21:12:00,
2013-08-20 16:17:00,88.8,75.0,29.90,SSW,196,3.2,7.0,64,0.00,FEW,,0.00,162.0,WeatherDisplay:10.37,2013-08-20 21:17:00,
2013-08-20 16:22:00,89.2,75.0,29.90,SSW,196,3.8,8.0,63,0.00,FEW,,0.00,552.0,WeatherDisplay:10.37,2013-08-20 21:22:00,
2013-08-20 16:27:00,89.5,75.2,29.90,SSE,155,4.5,7.0,63,0.00,FEW,,0.00,545.0,WeatherDisplay:10.37,2013-08-20 21:27:00,
2013-08-20 16:32:00,88.8,75.0,29.90,SSE,149,2.7,6.0,64,0.00,FEW,,0.00,513.0,WeatherDisplay:10.37,2013-08-20 21:32:00,
2013-08-20 16:37:00,88.6,75.3,29.90,NE,49,2.6,6.0,65,0.00,FEW,,0.00,489.0,WeatherDisplay:10.37,2013-08-20 21:37:00,
2013-08-20 16:42:00,89.2,75.4,29.90,South,181,3.9,9.2,64,0.00,FEW,,0.00,487.0,WeatherDisplay:10.37,2013-08-20 21:42:00,
2013-08-20 16:47:00,88.9,75.6,29.90,South,184,3.3,5.0,65,0.00,FEW,,0.00,478.0,WeatherDisplay:10.37,2013-08-20 21:47:00,
2013-08-20 16:52:00,88.9,75.1,29.90,South,169,4.2,7.0,64,0.00,FEW,,0.00,469.0,WeatherDisplay:10.37,2013-08-20 21:52:00,
2013-08-20 16:57:00,88.8,75.0,29.90,South,173,4.8,9.0,64,0.00,FEW,,0.00,455.0,WeatherDisplay:10.37,2013-08-20 21:57:00,
2013-08-20 17:02:00,89.1,75.8,29.90,South,176,1.0,3.0,65,0.00,CLR,,0.00,441.0,WeatherDisplay:10.37,2013-08-20 22:02:00,
2013-08-20 17:07:00,88.9,75.1,29.90,SSE,158,4.1,6.0,64,0.00,CLR,,0.00,427.0,WeatherDisplay:10.37,2013-08-20 22:07:00,
2013-08-20 17:12:00,88.3,75.0,29.90,South,189,3.8,5.0,65,0.00,CLR,,0.00,418.0,WeatherDisplay:10.37,2013-08-20 22:12:00,
2013-08-20 17:17:00,87.8,75.0,29.90,South,180,2.8,5.8,66,0.00,CLR,,0.00,396.0,WeatherDisplay:10.37,2013-08-20 22:17:00,
2013-08-20 17:22:00,87.5,75.2,29.90,SSE,161,2.7,4.0,67,0.00,CLR,,0.00,388.0,WeatherDisplay:10.37,2013-08-20 22:22:00,
2013-08-20 17:27:00,88.3,75.5,29.90,South,182,2.3,5.0,66,0.00,CLR,,0.00,374.0,WeatherDisplay:10.37,2013-08-20 22:27:00,
2013-08-20 17:32:00,88.0,75.2,29.90,SW,227,2.9,6.0,66,0.00,CLR,,0.00,374.0,WeatherDisplay:10.37,2013-08-20 22:32:00,
2013-08-20 17:37:00,87.8,75.0,29.90,South,178,2.4,6.0,66,0.00,CLR,,0.00,359.0,WeatherDisplay:10.37,2013-08-20 22:37:00,
2013-08-20 17:42:00,87.5,75.2,29.90,SSW,207,2.4,4.0,67,0.00,CLR,,0.00,336.0,WeatherDisplay:10.37,2013-08-20 22:42:00,
2013-08-20 17:47:00,87.4,75.5,29.90,South,180,2.0,5.0,68,0.00,CLR,,0.00,323.0,WeatherDisplay:10.37,2013-08-20 22:47:00,
2013-08-20 17:52:00,87.3,75.4,29.90,SE,146,3.0,5.0,68,0.00,CLR,,0.00,316.0,WeatherDisplay:10.37,2013-08-20 22:52:00,
2013-08-20 17:57:00,87.2,75.8,29.90,SSW,193,4.0,7.0,69,0.00,CLR,,0.00,313.0,WeatherDisplay:10.37,2013-08-20 22:57:00,
2013-08-20 18:02:00,87.1,75.7,29.90,South,183,2.9,5.0,69,0.00,CLR,,0.00,283.0,WeatherDisplay:10.37,2013-08-20 23:02:00,
2013-08-20 18:07:00,86.9,75.1,29.90,South,180,2.4,6.0,68,0.00,CLR,,0.00,269.0,WeatherDisplay:10.37,2013-08-20 23:07:00,
2013-08-20 18:12:00,87.5,76.1,29.90,SSW,192,1.7,3.5,69,0.00,CLR,,0.00,251.0,WeatherDisplay:10.37,2013-08-20 23:12:00,
2013-08-20 18:17:00,87.5,75.6,29.89,South,185,4.3,6.0,68,0.00,CLR,,0.00,234.0,WeatherDisplay:10.37,2013-08-20 23:17:00,
2013-08-20 18:22:00,86.8,75.4,29.90,South,173,1.9,4.0,69,0.00,CLR,,0.00,227.0,WeatherDisplay:10.37,2013-08-20 23:22:00,
2013-08-20 18:27:00,87.0,75.6,29.90,SSW,196,1.9,3.5,69,0.00,CLR,,0.00,190.0,WeatherDisplay:10.37,2013-08-20 23:27:00,
2013-08-20 18:32:00,86.7,75.3,29.90,South,169,2.8,6.0,69,0.00,CLR,,0.00,188.0,WeatherDisplay:10.37,2013-08-20 23:32:00,
2013-08-20 18:37:00,86.3,75.4,29.90,SSE,164,1.2,3.5,70,0.00,CLR,,0.00,181.0,WeatherDisplay:10.37,2013-08-20 23:37:00,
2013-08-20 18:42:00,85.9,75.4,29.89,SE,126,1.3,6.9,71,0.00,CLR,,0.00,153.0,WeatherDisplay:10.37,2013-08-20 23:42:00,
2013-08-20 18:47:00,85.6,75.1,29.90,SSE,157,3.5,6.0,71,0.00,CLR,,0.00,142.0,WeatherDisplay:10.37,2013-08-20 23:47:00,
2013-08-20 18:52:00,85.4,75.3,29.89,South,173,2.8,6.0,72,0.00,CLR,,0.00,135.0,WeatherDisplay:10.37,2013-08-20 23:52:00,
2013-08-20 18:57:00,85.2,75.1,29.89,South,175,1.1,3.5,72,0.00,CLR,,0.00,125.0,WeatherDisplay:10.37,2013-08-20 23:57:00,
2013-08-20 19:02:00,85.1,75.5,29.89,SW,220,1.5,3.5,73,0.00,CLR,,0.00,111.0,WeatherDisplay:10.37,2013-08-21 00:02:00,
2013-08-20 19:07:00,84.7,75.1,29.89,SSE,148,4.1,7.0,73,0.00,CLR,,0.00,93.0,WeatherDisplay:10.37,2013-08-21 00:07:00,
2013-08-20 19:12:00,84.6,75.4,29.89,East,95,1.7,4.0,74,0.00,CLR,,0.00,86.0,WeatherDisplay:10.37,2013-08-21 00:12:00,
2013-08-20 19:17:00,84.3,75.1,29.89,SSE,168,2.9,4.0,74,0.00,CLR,,0.00,76.0,WeatherDisplay:10.37,2013-08-21 00:17:00,
2013-08-20 19:22:00,83.9,75.1,29.89,SSE,155,1.3,4.6,75,0.00,CLR,,0.00,67.0,WeatherDisplay:10.37,2013-08-21 00:22:00,
2013-08-20 19:27:00,83.8,75.0,29.89,South,183,3.5,8.1,75,0.00,CLR,,0.00,60.0,WeatherDisplay:10.37,2013-08-21 00:27:00,
2013-08-20 19:32:00,83.2,74.8,29.89,South,169,2.2,4.0,76,0.00,CLR,,0.00,51.0,WeatherDisplay:10.37,2013-08-21 00:32:00,
2013-08-20 19:37:00,83.0,75.0,29.89,South,186,2.5,4.0,77,0.00,CLR,,0.00,42.0,WeatherDisplay:10.37,2013-08-21 00:37:00,
2013-08-20 19:42:00,82.8,74.8,29.89,South,189,2.8,6.0,77,0.00,CLR,,0.00,33.0,WeatherDisplay:10.37,2013-08-21 00:42:00,
2013-08-20 19:47:00,82.4,74.8,29.89,SSE,167,1.4,4.0,78,0.00,CLR,,0.00,25.0,WeatherDisplay:10.37,2013-08-21 00:47:00,
2013-08-20 19:52:00,82.1,74.6,29.89,South,173,1.9,6.0,78,0.00,CLR,,0.00,19.0,WeatherDisplay:10.37,2013-08-21 00:52:00,
2013-08-20 19:57:00,81.8,74.6,29.89,ESE,114,2.1,5.0,79,0.00,CLR,,0.00,16.0,WeatherDisplay:10.37,2013-08-21 00:57:00,
2013-08-20 20:02:00,81.7,74.5,29.90,South,180,0.5,3.0,79,0.00,CLR,,0.00,12.0,WeatherDisplay:10.37,2013-08-21 01:02:00,
2013-08-20 20:08:00,81.2,74.4,29.89,SSW,199,1.8,4.6,80,0.00,CLR,,0.00,9.0,WeatherDisplay:10.37,2013-08-21 01:08:00,
2013-08-20 20:13:00,81.0,74.6,29.90,SE,144,0.4,3.5,81,0.00,CLR,,0.00,5.0,WeatherDisplay:10.37,2013-08-21 01:13:00,
2013-08-20 20:18:00,80.8,74.4,29.90,SSE,150,0.6,4.0,81,0.00,CLR,,0.00,0.0,WeatherDisplay:10.37,2013-08-21 01:18:00,
2013-08-20 20:19:00,80.7,74.3,29.90,SSE,150,2.0,3.5,81,0.00,CLR,,0.00,0.0,WeatherDisplay:10.37,2013-08-21 01:19:00,
2013-08-20 20:24:00,80.5,74.5,29.90,ESE,113,0.9,3.5,82,0.00,CLR,,0.00,0.0,WeatherDisplay:10.37,2013-08-21 01:24:00,
2013-08-20 20:29:00,80.3,74.3,29.90,SSE,161,0.8,2.0,82,0.00,CLR,,0.00,0.0,WeatherDisplay:10.37,2013-08-21 01:29:00,
2013-08-20 20:34:00,80.1,74.5,29.90,SSE,159,0.5,2.0,83,0.00,CLR,,0.00,0.0,WeatherDisplay:10.37,2013-08-21 01:34:00,
2013-08-20 20:39:00,79.7,74.1,29.90,SSE,168,1.1,6.0,83,0.00,CLR,,0.00,0.0,WeatherDisplay:10.37,2013-08-21 01:39:00,
2013-08-20 20:44:00,79.6,74.0,29.90,SSE,166,1.8,4.0,83,0.00,CLR,,0.00,0.0,WeatherDisplay:10.37,2013-08-21 01:44:00,
2013-08-20 20:49:00,79.4,74.1,29.90,SSE,166,0.5,2.3,84,0.00,CLR,,0.00,0.0,WeatherDisplay:10.37,2013-08-21 01:49:00,
2013-08-20 20:54:00,79.2,73.9,29.90,South,173,1.6,4.0,84,0.00,CLR,,0.00,0.0,WeatherDisplay:10.37,2013-08-21 01:54:00,
2013-08-20 20:59:00,79.0,74.1,29.90,SE,146,1.0,3.5,85,0.00,CLR,,0.00,0.0,WeatherDisplay:10.37,2013-08-21 01:59:00,
2013-08-20 21:04:00,78.9,74.0,29.90,SSW,195,0.8,3.0,85,0.00,CLR,,0.00,0.0,WeatherDisplay:10.37,2013-08-21 02:04:00,
2013-08-20 21:09:00,78.7,73.8,29.90,SSE,155,2.3,4.0,85,0.00,CLR,,0.00,0.0,WeatherDisplay:10.37,2013-08-21 02:09:00,
2013-08-20 21:14:00,78.6,74.1,29.91,South,183,0.2,4.6,86,0.00,CLR,,0.00,0.0,WeatherDisplay:10.37,2013-08-21 02:14:00,
2013-08-20 21:19:00,78.5,74.0,29.91,South,181,0.6,3.5,86,0.00,CLR,,0.00,0.0,WeatherDisplay:10.37,2013-08-21 02:19:00,
2013-08-20 21:24:00,78.4,73.9,29.91,SSE,157,2.0,4.0,86,0.00,CLR,,0.00,0.0,WeatherDisplay:10.37,2013-08-21 02:24:00,
2013-08-20 21:29:00,78.2,73.7,29.91,SSE,152,1.3,3.5,86,0.00,CLR,,0.00,0.0,WeatherDisplay:10.37,2013-08-21 02:29:00,
2013-08-20 21:34:00,78.0,73.5,29.91,South,175,2.6,5.0,86,0.00,CLR,,0.00,0.0,WeatherDisplay:10.37,2013-08-21 02:34:00,
2013-08-20 21:39:00,77.9,73.7,29.91,SSE,158,1.5,5.8,87,0.00,CLR,,0.00,0.0,WeatherDisplay:10.37,2013-08-21 02:39:00,
2013-08-20 21:44:00,77.7,73.5,29.91,South,175,2.2,6.0,87,0.00,CLR,,0.00,0.0,WeatherDisplay:10.37,2013-08-21 02:44:00,
2013-08-20 21:49:00,77.6,73.4,29.91,South,174,0.2,2.3,87,0.00,CLR,,0.00,0.0,WeatherDisplay:10.37,2013-08-21 02:49:00,
2013-08-20 21:54:00,77.5,73.7,29.91,South,180,1.8,3.5,88,0.00,CLR,,0.00,0.0,WeatherDisplay:10.37,2013-08-21 02:54:00,
2013-08-20 21:59:00,77.4,73.6,29.91,South,176,1.5,3.5,88,0.00,CLR,,0.00,0.0,WeatherDisplay:10.37,2013-08-21 02:59:00,
2013-08-20 22:04:00,77.3,73.5,29.91,SE,141,1.1,3.0,88,0.00,CLR,,0.00,0.0,WeatherDisplay:10.37,2013-08-21 03:04:00,
2013-08-20 22:09:00,77.2,73.4,29.91,SSE,165,0.7,3.5,88,0.00,CLR,,0.00,0.0,WeatherDisplay:10.37,2013-08-21 03:09:00,
2013-08-20 22:14:00,77.1,73.3,29.91,South,175,2.5,4.0,88,0.00,CLR,,0.00,0.0,WeatherDisplay:10.37,2013-08-21 03:14:00,
2013-08-20 22:19:00,77.0,73.2,29.91,SSW,207,1.6,3.5,88,0.00,CLR,,0.00,0.0,WeatherDisplay:10.37,2013-08-21 03:19:00,
2013-08-20 22:24:00,76.9,73.1,29.91,South,188,1.7,3.5,88,0.00,CLR,,0.00,0.0,WeatherDisplay:10.37,2013-08-21 03:24:00,
2013-08-20 22:29:00,76.8,73.0,29.91,SSE,152,1.0,2.3,88,0.00,CLR,,0.00,0.0,WeatherDisplay:10.37,2013-08-21 03:29:00,
2013-08-20 22:34:00,76.7,73.2,29.91,South,170,0.1,2.3,89,0.00,CLR,,0.00,0.0,WeatherDisplay:10.37,2013-08-21 03:34:00,
2013-08-20 22:39:00,76.5,73.0,29.91,SE,136,2.3,4.0,89,0.00,CLR,,0.00,0.0,WeatherDisplay:10.37,2013-08-21 03:39:00,
2013-08-20 22:44:00,76.4,72.9,29.91,SE,137,0.2,1.2,89,0.00,CLR,,0.00,0.0,WeatherDisplay:10.37,2013-08-21 03:44:00,
2013-08-20 22:49:00,76.3,73.1,29.90,SSE,163,0.9,3.5,90,0.00,CLR,,0.00,0.0,WeatherDisplay:10.37,2013-08-21 03:49:00,
2013-08-20 22:54:00,76.2,72.7,29.90,SE,137,1.0,2.3,89,0.00,CLR,,0.00,0.0,WeatherDisplay:10.37,2013-08-21 03:54:00,
2013-08-20 22:59:00,76.2,72.7,29.90,SSE,168,0.4,2.3,89,0.00,CLR,,0.00,0.0,WeatherDisplay:10.37,2013-08-21 03:59:00,
2013-08-20 23:01:00,76.1,72.6,29.90,SSE,167,0.3,1.2,89,0.00,CLR,,0.00,0.0,WeatherDisplay:10.37,2013-08-21 04:01:00,
2013-08-20 23:02:00,76.1,73.0,29.90,SSE,167,0.5,2.0,90,0.00,CLR,,0.00,0.0,WeatherDisplay:10.37,2013-08-21 04:02:00,
2013-08-20 23:03:00,76.1,73.0,29.90,SSE,167,0.1,2.3,90,0.00,CLR,,0.00,0.0,WeatherDisplay:10.37,2013-08-21 04:03:00,
2013-08-20 23:04:00,76.1,73.0,29.90,SSE,167,0.7,2.0,90,0.00,CLR,,0.00,0.0,WeatherDisplay:10.37,2013-08-21 04:04:00,
2013-08-20 23:09:00,75.9,72.8,29.90,SSE,167,0.7,3.0,90,0.00,CLR,,0.00,0.0,WeatherDisplay:10.37,2013-08-21 04:09:00,
2013-08-20 23:10:00,75.8,72.7,29.90,SSE,167,0.3,3.5,90,0.00,CLR,,0.00,0.0,WeatherDisplay:10.37,2013-08-21 04:10:00,
2013-08-20 23:15:00,75.6,72.5,29.90,SSE,167,1.2,3.5,90,0.00,CLR,,0.00,0.0,WeatherDisplay:10.37,2013-08-21 04:15:00,
2013-08-20 23:20:00,75.5,72.7,29.90,South,170,0.9,2.0,91,0.00,CLR,,0.00,0.0,WeatherDisplay:10.37,2013-08-21 04:20:00,
2013-08-20 23:25:00,75.5,72.7,29.90,South,170,0.6,3.5,91,0.00,CLR,,0.00,0.0,WeatherDisplay:10.37,2013-08-21 04:25:00,
2013-08-20 23:30:00,75.5,72.7,29.90,South,171,0.9,2.3,91,0.00,CLR,,0.00,0.0,WeatherDisplay:10.37,2013-08-21 04:30:00,
2013-08-20 23:35:00,75.5,72.7,29.90,South,171,1.1,3.0,91,0.00,CLR,,0.00,0.0,WeatherDisplay:10.37,2013-08-21 04:35:00,
2013-08-20 23:40:00,75.5,72.4,29.89,South,171,0.0,1.2,90,0.00,CLR,,0.00,0.0,WeatherDisplay:10.37,2013-08-21 04:40:00,
2013-08-20 23:45:00,75.5,72.7,29.89,South,170,0.1,1.2,91,0.00,CLR,,0.00,0.0,WeatherDisplay:10.37,2013-08-21 04:45:00,
2013-08-20 23:50:00,75.6,72.8,29.89,South,185,0.7,3.5,91,0.00,CLR,,0.00,0.0,WeatherDisplay:10.37,2013-08-21 04:50:00,
2013-08-20 23:55:00,75.5,72.7,29.89,South,182,1.9,5.0,91,0.00,CLR,,0.00,0.0,WeatherDisplay:10.37,2013-08-21 04:55:00,